Time;durP1;ratioP1;P1;durP2;ratioP2;P2;SDS_P1;SDS_P2;PMS_P1;PMS_P2;Temp;Humidity;BMP_temperature;BMP_pressure;BME280_temperature;BME280_humidity;BME280_pressure;Samples;Min_cycle;Max_cycle;Signal;HPM_P1;HPM_P2
2022/01/09 00:02:22;;;;;;;1.10;1.00;;;;;;;8.74;38.99;93725.00;5051371;28;20103;-67
2022/01/09 00:04:47;;;;;;;1.00;0.73;;;;;;;8.70;38.92;93723.34;5051300;28;20029;-67
2022/01/09 00:07:12;;;;;;;1.50;0.88;;;;;;;8.80;38.83;93713.13;5051321;28;20533;-66
2022/01/09 00:09:41;;;;;;;1.30;0.93;;;;;;;8.90;38.87;93706.59;5050619;28;20029;-67
2022/01/09 00:12:07;;;;;;;2.55;1.02;;;;;;;8.73;39.24;93714.75;5051460;28;20021;-67
2022/01/09 00:14:32;;;;;;;1.48;1.00;;;;;;;8.05;39.60;93614.34;5050692;28;20029;-68
2022/01/09 00:16:59;;;;;;;1.15;0.90;;;;;;;7.98;39.68;93656.44;5050693;28;20048;-67
2022/01/09 00:19:25;;;;;;;1.40;1.20;;;;;;;8.20;39.93;93666.72;5050352;28;20082;-65
2022/01/09 00:21:50;;;;;;;1.80;1.20;;;;;;;8.21;40.01;93660.31;5051304;28;20421;-65
2022/01/09 00:24:16;;;;;;;1.75;1.10;;;;;;;8.40;39.55;93667.81;5033133;28;20057;-67
2022/01/09 00:26:41;;;;;;;1.05;0.77;;;;;;;8.20;39.48;93631.50;5033222;28;20083;-66
2022/01/09 00:29:07;;;;;;;1.08;0.77;;;;;;;7.67;40.97;93665.50;5049822;28;20775;-65
2022/01/09 00:31:32;;;;;;;0.82;0.80;;;;;;;8.19;40.52;93675.75;5051133;28;20073;-65
2022/01/09 00:33:58;;;;;;;1.55;1.10;;;;;;;8.56;40.44;93703.22;5050676;28;20021;-66
2022/01/09 00:36:23;;;;;;;0.85;0.80;;;;;;;8.19;40.24;93651.91;5050792;28;20479;-65
2022/01/09 00:38:49;;;;;;;2.50;1.00;;;;;;;7.61;40.59;93648.28;5032758;28;20029;-66
2022/01/09 00:41:14;;;;;;;1.25;1.00;;;;;;;6.65;42.55;93596.94;5032002;28;20067;-66
2022/01/09 00:43:40;;;;;;;1.38;0.88;;;;;;;7.43;42.04;93681.22;5050869;28;20029;-66
2022/01/09 00:46:05;;;;;;;1.90;1.23;;;;;;;7.84;41.27;93654.06;5049796;28;20021;-66
2022/01/09 00:48:30;;;;;;;1.65;1.05;;;;;;;8.19;41.13;93646.63;5050382;28;20037;-66
2022/01/09 00:50:56;;;;;;;1.35;0.80;;;;;;;8.28;40.89;93618.16;5031948;28;20021;-66
2022/01/09 00:53:21;;;;;;;1.08;0.98;;;;;;;8.59;39.93;93630.22;5050194;28;20104;-66
2022/01/09 00:55:47;;;;;;;1.20;0.82;;;;;;;8.63;39.94;93631.09;5050502;28;20025;-66
2022/01/09 00:58:12;;;;;;;1.42;0.90;;;;;;;8.94;39.78;93648.41;5050256;28;20017;-66
2022/01/09 01:00:39;;;;;;;1.40;0.90;;;;;;;8.83;39.50;93605.63;5049287;28;20025;-66
2022/01/09 01:03:04;;;;;;;0.70;0.60;;;;;;;8.96;39.38;93630.31;5050979;28;20488;-67
2022/01/09 01:05:30;;;;;;;1.40;0.60;;;;;;;8.57;39.28;93576.75;5050622;28;20025;-67
2022/01/09 01:07:55;;;;;;;1.77;1.10;;;;;;;8.80;39.19;93604.44;5050237;28;20615;-66
2022/01/09 01:10:21;;;;;;;0.75;0.70;;;;;;;8.94;38.89;93595.38;5049598;28;20024;-66
2022/01/09 01:12:48;;;;;;;1.17;0.95;;;;;;;9.04;39.22;93624.88;5049984;28;20083;-66
2022/01/09 01:15:14;;;;;;;0.93;0.60;;;;;;;8.80;39.49;93559.34;5049658;28;20036;-67
2022/01/09 01:17:39;;;;;;;1.60;0.73;;;;;;;9.32;39.13;93638.28;5049351;28;20110;-67
2022/01/09 01:20:05;;;;;;;2.35;1.23;;;;;;;9.17;38.91;93580.56;5049239;28;20025;-67
2022/01/09 01:22:32;;;;;;;1.35;0.65;;;;;;;9.25;39.14;93598.22;5031925;28;20425;-67
2022/01/09 01:24:58;;;;;;;2.03;0.98;;;;;;;8.87;38.99;93640.22;5031966;28;20518;-67
2022/01/09 01:27:23;;;;;;;0.85;0.80;;;;;;;8.89;39.71;93625.53;5050237;28;20062;-68
2022/01/09 01:29:49;;;;;;;1.33;0.98;;;;;;;8.47;39.53;93588.56;5048779;28;20029;-66
2022/01/09 01:32:14;;;;;;;1.08;0.90;;;;;;;6.64;43.42;93627.88;5031769;28;20053;-66
2022/01/09 01:34:40;;;;;;;0.90;0.73;;;;;;;7.97;41.60;93628.41;5049894;28;20380;-66
2022/01/09 01:37:05;;;;;;;1.67;0.80;;;;;;;8.25;41.67;93594.22;5050026;28;20523;-67
2022/01/09 01:39:30;;;;;;;1.00;0.60;;;;;;;8.30;42.11;93581.53;5049095;28;20033;-66
2022/01/09 01:41:56;;;;;;;0.80;0.60;;;;;;;8.22;41.99;93507.44;5049692;28;20029;-66
2022/01/09 01:44:22;;;;;;;1.23;0.80;;;;;;;8.72;42.16;93556.81;5049404;28;20029;-66
2022/01/09 01:46:47;;;;;;;0.95;0.80;;;;;;;8.74;41.98;93539.44;5049488;28;20032;-67
2022/01/09 01:49:13;;;;;;;0.90;0.70;;;;;;;8.76;42.40;93595.56;5048897;28;20025;-66
2022/01/09 01:51:43;;;;;;;1.42;0.75;;;;;;;8.89;42.94;93619.44;5049255;28;20032;-66
2022/01/09 01:54:13;;;;;;;1.23;0.80;;;;;;;8.92;43.04;93608.19;5049694;28;20029;-66
2022/01/09 01:56:39;;;;;;;1.38;0.85;;;;;;;8.62;43.68;93589.03;5049753;28;20486;-66
2022/01/09 01:59:06;;;;;;;1.08;0.90;;;;;;;8.82;43.90;93610.16;5049234;28;20033;-66
2022/01/09 02:01:31;;;;;;;1.33;1.02;;;;;;;8.89;44.35;93592.94;5048553;28;20486;-65
2022/01/09 02:03:57;;;;;;;1.10;0.93;;;;;;;9.26;43.98;93631.63;5049354;28;20025;-65
2022/01/09 02:06:23;;;;;;;1.30;0.77;;;;;;;9.33;44.25;93631.09;5049716;28;20021;-66
2022/01/09 02:08:49;;;;;;;1.23;0.88;;;;;;;9.26;43.64;93634.25;5031766;28;20025;-66
2022/01/09 02:11:14;;;;;;;1.35;1.00;;;;;;;9.23;44.22;93618.25;5048999;28;20029;-65
2022/01/09 02:13:44;;;;;;;1.67;0.90;;;;;;;9.01;44.45;93654.72;5049685;28;20036;-67
2022/01/09 02:16:16;;;;;;;1.45;1.10;;;;;;;8.24;45.27;93597.94;5048760;28;20132;-65
2022/01/09 02:18:43;;;;;;;2.05;1.40;;;;;;;8.77;45.16;93605.06;5048987;28;20041;-65
2022/01/09 02:21:10;;;;;;;2.50;1.23;;;;;;;8.99;45.85;93613.72;5048524;28;20025;-65
2022/01/09 02:23:37;;;;;;;1.42;1.00;;;;;;;8.99;46.31;93605.75;5049295;28;20017;-66
2022/01/09 02:26:03;;;;;;;1.52;1.20;;;;;;;9.21;47.20;93604.53;5049197;28;20083;-65
2022/01/09 02:28:29;;;;;;;1.10;1.00;;;;;;;8.96;47.35;93542.78;5049296;28;20110;-66
2022/01/09 02:30:54;;;;;;;0.90;0.80;;;;;;;9.02;47.52;93560.03;5047850;28;20549;-65
2022/01/09 02:33:20;;;;;;;0.80;0.60;;;;;;;9.14;47.45;93572.50;5030909;28;20029;-65
2022/01/09 02:35:49;;;;;;;0.80;0.70;;;;;;;9.08;47.75;93559.44;5049085;28;20021;-65
2022/01/09 02:38:15;;;;;;;1.02;0.93;;;;;;;8.91;47.93;93550.97;5049012;28;20061;-66
2022/01/09 02:40:40;;;;;;;1.08;0.70;;;;;;;8.95;47.93;93551.81;5048327;28;20483;-66
2022/01/09 02:43:05;;;;;;;0.85;0.80;;;;;;;8.88;48.96;93556.91;5048935;28;20029;-66
2022/01/09 02:45:31;;;;;;;1.17;0.70;;;;;;;8.64;48.66;93502.00;5048510;28;20100;-66
2022/01/09 02:47:59;;;;;;;1.25;1.02;;;;;;;9.20;48.69;93579.13;5048681;28;20029;-66
2022/01/09 02:53:01;;;;;;;0.95;0.88;;;;;;;9.14;49.19;93577.78;5048937;28;20033;-66
2022/01/09 02:55:28;;;;;;;1.48;0.80;;;;;;;9.07;49.03;93557.91;5052760;28;20021;-66
2022/01/09 02:57:56;;;;;;;1.00;0.65;;;;;;;9.03;49.94;93545.66;5052826;28;20029;-66
2022/01/09 03:00:29;;;;;;;0.80;0.60;;;;;;;8.95;49.82;93552.59;5051526;28;20491;-67
2022/01/09 03:02:55;;;;;;;1.00;0.90;;;;;;;8.82;49.77;93513.94;5050918;28;20086;-66
2022/01/09 03:05:22;;;;;;;3.72;0.90;;;;;;;9.17;50.09;93559.34;5052840;28;20486;-66
2022/01/09 03:07:47;;;;;;;0.60;0.60;;;;;;;9.16;50.99;93557.78;5052766;28;20040;-66
2022/01/09 03:10:16;;;;;;;0.60;0.60;;;;;;;8.96;50.97;93514.38;5052137;28;20052;-65
2022/01/09 03:12:41;;;;;;;0.65;0.50;;;;;;;8.93;50.54;93496.47;5052229;28;20386;-65
2022/01/09 03:15:08;;;;;;;0.82;0.60;;;;;;;9.01;49.99;93500.13;5052113;28;20021;-67
2022/01/09 03:17:34;;;;;;;1.17;0.70;;;;;;;9.11;50.04;93504.97;5051527;28;20033;-66
2022/01/09 03:19:59;;;;;;;0.63;0.50;;;;;;;9.18;49.74;93523.75;5033561;28;20044;-66
2022/01/09 03:22:25;;;;;;;1.00;0.57;;;;;;;9.05;50.07;93501.00;5034556;28;20479;-66
2022/01/09 03:24:50;;;;;;;0.57;0.50;;;;;;;9.02;49.48;93502.44;5051663;28;20036;-67
2022/01/09 03:27:16;;;;;;;1.42;0.65;;;;;;;9.14;49.51;93514.13;5051381;28;20021;-66
2022/01/09 03:29:43;;;;;;;2.30;0.90;;;;;;;8.73;49.07;93468.97;5050833;28;20769;-66
2022/01/09 03:32:09;;;;;;;0.73;0.70;;;;;;;9.04;49.01;93505.53;5046012;23;20488;-62
2022/01/09 03:34:35;;;;;;;0.68;0.57;;;;;;;8.95;49.60;93512.81;5011916;28;20059;-63
2022/01/09 03:37:00;;;;;;;0.70;0.60;;;;;;;8.63;49.81;93474.72;5012317;28;20057;-63
2022/01/09 03:39:26;;;;;;;1.27;0.60;;;;;;;8.76;49.40;93475.50;4993916;28;20025;-62
2022/01/09 03:41:54;;;;;;;1.83;0.70;;;;;;;8.76;49.63;93486.88;4994607;28;20088;-62
2022/01/09 03:44:20;;;;;;;1.33;0.80;;;;;;;8.79;49.74;93496.03;5012171;28;20464;-62
2022/01/09 03:46:45;;;;;;;0.73;0.70;;;;;;;8.74;49.04;93475.81;5011417;28;20260;-63
2022/01/09 03:49:10;;;;;;;0.55;0.52;;;;;;;8.76;49.10;93508.09;5011398;28;20472;-63
2022/01/09 03:51:37;;;;;;;0.60;0.55;;;;;;;8.69;49.19;93478.69;5011516;28;20463;-63
2022/01/09 03:54:05;;;;;;;1.98;0.60;;;;;;;8.80;49.66;93486.97;5011967;28;20068;-63
2022/01/09 03:56:30;;;;;;;2.35;0.80;;;;;;;8.89;49.09;93497.47;5011931;28;20030;-62
2022/01/09 03:58:56;;;;;;;1.90;0.70;;;;;;;9.06;48.75;93502.56;5011450;28;20472;-63
2022/01/09 04:01:21;;;;;;;0.57;0.57;;;;;;;8.80;49.26;93497.56;5011036;28;20026;-63
2022/01/09 04:03:47;;;;;;;2.03;0.93;;;;;;;8.59;49.15;93466.66;4993807;28;20120;-62
2022/01/09 04:06:12;;;;;;;1.00;0.80;;;;;;;8.43;49.16;93486.97;4992816;28;20472;-62
2022/01/09 04:08:38;;;;;;;0.60;0.60;;;;;;;8.43;49.04;93473.72;5011688;28;20451;-63
2022/01/09 04:11:05;;;;;;;1.10;0.70;;;;;;;8.68;49.46;93510.84;5010847;28;20112;-63
2022/01/09 04:13:31;;;;;;;0.75;0.55;;;;;;;8.08;49.67;93430.94;4994108;28;20026;-62
2022/01/09 04:15:56;;;;;;;0.68;0.38;;;;;;;8.62;49.70;93517.47;5011028;28;20037;-62
2022/01/09 04:18:23;;;;;;;0.70;0.70;;;;;;;8.61;50.04;93521.22;5011143;28;20052;-63
2022/01/09 04:20:50;;;;;;;0.40;0.40;;;;;;;8.55;50.15;93496.81;5010479;28;20475;-63
2022/01/09 04:23:16;;;;;;;0.45;0.40;;;;;;;8.95;49.97;93531.38;4993855;28;20053;-62
2022/01/09 04:25:44;;;;;;;0.50;0.43;;;;;;;8.83;49.83;93489.75;5011425;28;20448;-62
2022/01/09 04:28:12;;;;;;;1.02;0.50;;;;;;;9.00;49.71;93501.97;5011253;28;20105;-63
2022/01/09 04:30:37;;;;;;;0.60;0.50;;;;;;;9.02;49.42;93493.72;5009984;28;20116;-63
2022/01/09 04:33:03;;;;;;;1.20;0.50;;;;;;;9.05;49.11;93496.44;5011139;28;20112;-62
2022/01/09 04:35:28;;;;;;;0.75;0.30;;;;;;;8.89;49.06;93492.94;5011038;28;20026;-62
2022/01/09 04:37:54;;;;;;;0.93;0.30;;;;;;;8.88;49.24;93503.88;5011072;28;20464;-62
2022/01/09 04:40:21;;;;;;;0.50;0.43;;;;;;;8.95;49.93;93512.03;4992963;28;20021;-64
2022/01/09 04:42:52;;;;;;;1.02;0.40;;;;;;;8.84;49.52;93493.16;5010925;28;20083;-62
2022/01/09 04:45:19;;;;;;;0.50;0.40;;;;;;;8.91;49.47;93500.59;5010662;28;20080;-63
2022/01/09 04:47:47;;;;;;;0.40;0.40;;;;;;;8.87;49.67;93505.78;5010563;28;20030;-63
2022/01/09 04:50:19;;;;;;;1.70;0.40;;;;;;;8.76;49.61;93497.50;5010178;28;20018;-63
2022/01/09 04:52:46;;;;;;;1.35;0.80;;;;;;;8.75;49.40;93498.59;5010974;28;20021;-61
2022/01/09 04:55:12;;;;;;;0.68;0.60;;;;;;;8.88;49.62;93512.63;4993293;28;20033;-63
2022/01/09 04:57:38;;;;;;;0.95;0.60;;;;;;;8.72;49.62;93490.53;4993065;28;20021;-62
2022/01/09 05:00:05;;;;;;;1.35;0.40;;;;;;;8.81;49.98;93501.81;5009976;28;20025;-63
2022/01/09 05:02:30;;;;;;;2.30;0.40;;;;;;;8.69;49.90;93488.53;5007280;28;20684;-63
2022/01/09 05:04:55;;;;;;;1.13;0.47;;;;;;;8.47;50.04;93485.22;4993119;28;20061;-63
2022/01/09 05:07:20;;;;;;;1.42;0.35;;;;;;;8.25;50.96;93473.13;5010723;28;20030;-63
2022/01/09 05:09:46;;;;;;;0.30;0.30;;;;;;;7.00;56.16;93499.75;5010048;28;20523;-63
2022/01/09 05:12:11;;;;;;;0.20;0.20;;;;;;;6.60;57.41;93492.22;5010559;28;20028;-62
2022/01/09 05:14:37;;;;;;;0.43;0.20;;;;;;;6.51;57.33;93510.75;5010663;28;20030;-63
2022/01/09 05:17:02;;;;;;;0.22;0.10;;;;;;;6.65;58.79;93528.25;5009468;28;20068;-63
2022/01/09 05:19:29;;;;;;;0.10;0.10;;;;;;;6.42;58.93;93503.97;5009409;28;20084;-62
2022/01/09 05:21:56;;;;;;;0.10;0.10;;;;;;;6.76;59.54;93556.66;5010209;28;20026;-62
2022/01/09 05:24:22;;;;;;;0.17;0.10;;;;;;;6.81;58.71;93510.78;5010443;28;20018;-62
2022/01/09 05:26:48;;;;;;;0.68;0.00;;;;;;;6.45;59.92;93533.16;5010480;28;20511;-62
2022/01/09 05:29:13;;;;;;;0.28;0.10;;;;;;;6.60;59.60;93510.69;5009885;28;20097;-63
2022/01/09 05:31:39;;;;;;;0.25;0.10;;;;;;;7.56;57.69;93559.28;4991671;28;20032;-62
2022/01/09 05:34:04;;;;;;;1.15;0.20;;;;;;;7.04;57.88;93538.47;5010249;28;20105;-62
2022/01/09 05:36:30;;;;;;;0.10;0.10;;;;;;;8.02;56.01;93554.06;4992763;28;20109;-63
2022/01/09 05:38:55;;;;;;;0.10;0.10;;;;;;;7.74;55.36;93522.88;5009945;28;20120;-63
2022/01/09 05:41:21;;;;;;;0.35;0.30;;;;;;;8.36;54.09;93533.66;5009780;28;20029;-61
2022/01/09 05:43:47;;;;;;;0.30;0.10;;;;;;;8.52;53.76;93548.59;5009815;28;20456;-63
2022/01/09 05:46:13;;;;;;;0.13;0.10;;;;;;;8.14;54.73;93553.31;5009871;28;20034;-63
2022/01/09 05:48:38;;;;;;;0.47;0.10;;;;;;;7.36;56.04;93556.63;5009917;28;20022;-62
2022/01/09 05:51:03;;;;;;;0.20;0.20;;;;;;;8.85;53.52;93566.28;5009290;28;20483;-62
2022/01/09 05:53:29;;;;;;;0.20;0.20;;;;;;;7.95;54.04;93556.47;4992575;28;20042;-63
2022/01/09 05:55:54;;;;;;;0.30;0.30;;;;;;;7.79;55.32;93543.84;4992326;28;20030;-63
2022/01/09 05:58:19;;;;;;;1.15;0.10;;;;;;;7.33;56.29;93557.28;5010030;28;20029;-63
2022/01/09 06:00:45;;;;;;;0.57;0.30;;;;;;;8.02;54.04;93551.41;5010335;28;20061;-62
2022/01/09 06:03:10;;;;;;;0.10;0.00;;;;;;;8.07;54.29;93559.94;5009656;28;20018;-63
2022/01/09 06:05:36;;;;;;;1.55;0.10;;;;;;;7.12;55.75;93542.16;4992346;28;20049;-63
2022/01/09 06:08:01;;;;;;;0.20;0.17;;;;;;;7.31;56.48;93581.38;5009767;28;20045;-66
2022/01/09 06:10:26;;;;;;;0.17;0.10;;;;;;;7.06;58.82;93577.78;4991347;28;20034;-66
2022/01/09 06:12:52;;;;;;;0.63;0.17;;;;;;;8.40;56.60;93592.84;5009832;28;20040;-66
2022/01/09 06:15:17;;;;;;;0.88;0.10;;;;;;;8.33;54.87;93583.50;5009644;28;20022;-66
2022/01/09 06:17:44;;;;;;;0.28;0.13;;;;;;;8.81;54.74;93592.72;5010514;28;20593;-66
2022/01/09 06:20:12;;;;;;;0.40;0.28;;;;;;;8.16;56.24;93598.81;4991260;28;20072;-63
2022/01/09 06:22:37;;;;;;;0.17;0.10;;;;;;;6.70;60.59;93616.03;5009772;28;20022;-62
2022/01/09 06:25:04;;;;;;;0.10;0.10;;;;;;;7.15;59.07;93575.88;5009731;28;20119;-65
2022/01/09 06:27:29;;;;;;;5.95;0.20;;;;;;;6.12;62.02;93584.97;5009458;28;20022;-65
2022/01/09 06:29:54;;;;;;;0.30;0.15;;;;;;;6.48;61.19;93540.44;5012080;28;20037;-63
2022/01/09 06:32:20;;;;;;;0.20;0.17;;;;;;;6.77;61.14;93607.63;4994909;28;20369;-61
2022/01/09 06:34:45;;;;;;;1.90;0.20;;;;;;;6.48;60.68;93551.00;5013470;28;20036;-61
2022/01/09 06:37:12;;;;;;;0.00;0.00;;;;;;;6.90;60.17;93608.50;4995894;28;20018;-66
2022/01/09 06:39:38;;;;;;;0.05;0.03;;;;;;;6.46;61.33;93613.94;4995117;28;20116;-61
2022/01/09 06:42:04;;;;;;;0.08;0.08;;;;;;;5.64;63.41;93607.00;5013040;28;20365;-61
2022/01/09 06:44:29;;;;;;;0.00;0.00;;;;;;;5.74;63.21;93567.91;5013372;28;20145;-64
2022/01/09 06:46:55;;;;;;;0.20;0.10;;;;;;;6.40;62.09;93606.50;5012374;28;20075;-64
2022/01/09 06:49:20;;;;;;;0.10;0.10;;;;;;;5.62;63.03;93588.84;5012563;28;20112;-63
2022/01/09 06:51:45;;;;;;;0.63;0.17;;;;;;;5.93;63.23;93595.84;5012274;28;20026;-64
2022/01/09 06:54:13;;;;;;;0.10;0.10;;;;;;;5.96;62.81;93614.47;5013038;28;20030;-63
2022/01/09 06:56:38;;;;;;;0.00;0.00;;;;;;;5.58;63.92;93634.59;5013034;28;20515;-61
2022/01/09 06:59:04;;;;;;;0.08;0.00;;;;;;;6.14;63.14;93662.78;4995011;28;20030;-62
2022/01/09 07:01:29;;;;;;;0.00;0.00;;;;;;;5.79;63.36;93653.28;5012321;28;20402;-62
2022/01/09 07:03:54;;;;;;;0.20;0.10;;;;;;;6.48;61.74;93679.66;5012539;28;20022;-62
2022/01/09 07:06:20;;;;;;;0.10;0.05;;;;;;;6.19;62.34;93649.41;4995360;28;20025;-64
2022/01/09 07:08:45;;;;;;;0.03;0.00;;;;;;;6.37;61.74;93657.31;4995215;28;20026;-64
2022/01/09 07:11:10;;;;;;;0.22;0.22;;;;;;;5.49;63.95;93661.00;5011946;28;20022;-62
2022/01/09 07:13:36;;;;;;;0.10;0.03;;;;;;;5.60;64.32;93704.44;5012929;28;20089;-64
2022/01/09 07:16:01;;;;;;;0.13;0.10;;;;;;;5.34;64.70;93671.97;5012347;28;20119;-64
2022/01/09 07:18:26;;;;;;;0.80;0.00;;;;;;;5.17;65.01;93681.38;5012296;28;20113;-64
2022/01/09 07:20:52;;;;;;;0.13;0.10;;;;;;;5.59;64.63;93718.72;5011731;28;20030;-62
2022/01/09 07:23:18;;;;;;;0.10;0.10;;;;;;;5.10;66.68;93702.09;4995000;28;20029;-63
2022/01/09 07:25:44;;;;;;;0.22;0.00;;;;;;;5.66;66.34;93742.78;5012599;28;20025;-65
2022/01/09 07:28:09;;;;;;;0.10;0.10;;;;;;;4.74;66.80;93659.34;5012338;28;20030;-62
2022/01/09 07:30:35;;;;;;;0.00;0.00;;;;;;;4.89;67.57;93736.13;4994118;28;20036;-62
2022/01/09 07:33:00;;;;;;;0.00;0.00;;;;;;;4.61;67.82;93721.56;4994204;28;20115;-62
2022/01/09 07:35:26;;;;;;;0.13;0.10;;;;;;;5.41;67.18;93762.72;4994445;28;20025;-64
2022/01/09 07:37:53;;;;;;;0.40;0.17;;;;;;;4.64;69.18;93774.38;4994549;28;20092;-62
2022/01/09 07:40:20;;;;;;;0.00;0.00;;;;;;;3.91;70.60;93722.88;5011141;28;20029;-62
2022/01/09 07:42:46;;;;;;;0.40;0.22;;;;;;;4.50;69.43;93772.88;5012106;28;20026;-62
2022/01/09 07:45:13;;;;;;;0.00;0.00;;;;;;;4.44;70.00;93803.81;4994520;28;20384;-62
2022/01/09 07:47:38;;;;;;;0.35;0.30;;;;;;;4.77;69.22;93769.38;4993883;28;20451;-62
2022/01/09 07:50:06;;;;;;;0.52;0.10;;;;;;;4.96;68.30;93783.09;5011103;28;20033;-62
2022/01/09 07:52:34;;;;;;;0.00;0.00;;;;;;;4.08;70.44;93762.50;4994471;28;20108;-60
2022/01/09 07:55:00;;;;;;;0.25;0.20;;;;;;;4.84;68.45;93780.25;5011962;28;20030;-61
2022/01/09 07:57:26;;;;;;;0.20;0.20;;;;;;;4.87;68.51;93795.47;5011945;28;20030;-60
2022/01/09 07:59:51;;;;;;;0.52;0.20;;;;;;;5.00;68.42;93801.75;5011107;28;20538;-61
2022/01/09 08:02:17;;;;;;;0.15;0.10;;;;;;;4.76;69.04;93808.13;5000255;28;20033;-61
2022/01/09 08:04:42;;;;;;;0.10;0.10;;;;;;;4.47;70.18;93808.50;5013194;28;20503;-62
2022/01/09 08:07:08;;;;;;;0.10;0.10;;;;;;;4.52;70.02;93810.25;5011818;28;20124;-62
2022/01/09 08:09:33;;;;;;;0.20;0.20;;;;;;;5.05;68.42;93822.69;5011245;28;20105;-61
2022/01/09 08:11:58;;;;;;;0.15;0.10;;;;;;;4.96;68.70;93843.72;4993821;28;20026;-61
2022/01/09 08:14:24;;;;;;;0.95;0.30;;;;;;;5.07;68.38;93847.69;4994014;28;20116;-62
2022/01/09 08:16:49;;;;;;;1.65;0.70;;;;;;;5.30;67.25;93831.84;5012572;28;20056;-61
2022/01/09 08:19:14;;;;;;;0.20;0.20;;;;;;;5.40;67.59;93835.00;5012290;28;20045;-61
2022/01/09 08:21:40;;;;;;;0.17;0.17;;;;;;;4.59;68.77;93829.81;5010830;28;20026;-62
2022/01/09 08:24:05;;;;;;;0.30;0.30;;;;;;;5.32;67.93;93854.16;4993907;28;20025;-61
2022/01/09 08:26:30;;;;;;;0.15;0.15;;;;;;;4.98;67.24;93801.28;5011390;28;20530;-62
2022/01/09 08:28:56;;;;;;;0.20;0.17;;;;;;;4.55;68.96;93841.22;5011009;28;20097;-62
2022/01/09 08:31:21;;;;;;;0.30;0.20;;;;;;;5.06;68.39;93834.78;5010384;28;20080;-62
2022/01/09 08:33:47;;;;;;;0.60;0.60;;;;;;;5.01;68.14;93880.50;5011021;28;20152;-62
2022/01/09 08:36:13;;;;;;;0.45;0.40;;;;;;;5.41;67.56;93896.41;5011339;28;20156;-61
2022/01/09 08:38:39;;;;;;;0.77;0.30;;;;;;;5.26;68.19;93896.78;5011089;28;20036;-62
2022/01/09 08:41:05;;;;;;;0.35;0.30;;;;;;;5.22;68.56;93910.59;5010549;28;20384;-62
2022/01/09 08:43:31;;;;;;;0.63;0.10;;;;;;;5.43;67.50;93918.78;5011554;28;20026;-61
2022/01/09 08:45:57;;;;;;;0.63;0.17;;;;;;;5.24;68.32;93910.28;4993775;28;20030;-61
2022/01/09 08:48:23;;;;;;;0.75;0.30;;;;;;;5.62;66.25;93904.59;5010582;28;20026;-61
2022/01/09 08:50:48;;;;;;;0.95;0.30;;;;;;;5.50;66.51;93904.41;4992063;28;20037;-61
2022/01/09 08:53:15;;;;;;;2.40;1.40;;;;;;;5.70;66.11;93907.28;5010768;28;20033;-62
2022/01/09 08:55:40;;;;;;;0.45;0.35;;;;;;;5.53;65.79;93928.31;5011165;28;20033;-61
2022/01/09 08:58:06;;;;;;;0.47;0.47;;;;;;;5.74;65.95;93913.53;5010908;28;20029;-62
2022/01/09 09:00:31;;;;;;;0.10;0.10;;;;;;;5.15;66.35;93906.78;5010210;28;20077;-62
2022/01/09 09:02:56;;;;;;;0.50;0.20;;;;;;;5.57;66.14;93912.66;5012023;28;20057;-62
2022/01/09 09:05:22;;;;;;;0.25;0.20;;;;;;;5.36;66.04;93917.63;5010934;28;20460;-61
2022/01/09 09:07:48;;;;;;;0.57;0.20;;;;;;;5.59;64.47;93899.94;5010865;28;20022;-62
2022/01/09 09:10:13;;;;;;;0.40;0.20;;;;;;;6.13;63.88;93935.75;4992547;28;20084;-62
2022/01/09 09:12:39;;;;;;;0.52;0.20;;;;;;;5.75;65.03;93932.78;5010731;28;20021;-62
2022/01/09 09:15:05;;;;;;;0.30;0.30;;;;;;;6.23;63.47;93959.25;5010681;28;20033;-62
2022/01/09 09:17:31;;;;;;;0.32;0.28;;;;;;;6.17;63.39;93964.97;5011725;28;20022;-62
2022/01/09 09:19:56;;;;;;;0.32;0.28;;;;;;;5.40;65.79;93960.78;5010886;28;20550;-61
2022/01/09 09:22:22;;;;;;;0.80;0.35;;;;;;;5.65;64.84;93939.09;4992619;28;20080;-62
2022/01/09 09:24:48;;;;;;;0.60;0.22;;;;;;;5.71;64.33;93950.28;4992536;28;20026;-62
2022/01/09 09:27:13;;;;;;;0.38;0.30;;;;;;;5.69;65.17;93973.56;4992420;28;20400;-61
2022/01/09 09:29:38;;;;;;;0.80;0.43;;;;;;;5.48;66.32;93981.19;5009894;28;20125;-62
2022/01/09 09:32:04;;;;;;;0.30;0.30;;;;;;;5.58;64.89;93965.13;5016535;23;20040;-70
2022/01/09 09:34:30;;;;;;;0.45;0.28;;;;;;;5.16;67.08;93982.94;5031738;28;20025;-70
2022/01/09 09:36:56;;;;;;;0.50;0.20;;;;;;;5.07;67.13;93984.75;5048702;28;20036;-71
2022/01/09 09:39:21;;;;;;;0.52;0.50;;;;;;;4.91;65.20;93914.97;5031318;28;20025;-71
2022/01/09 09:41:47;;;;;;;2.20;0.40;;;;;;;5.16;64.99;93917.03;5049554;28;20017;-70
2022/01/09 09:44:13;;;;;;;1.27;0.45;;;;;;;5.18;65.31;93972.13;5049764;28;20021;-70
2022/01/09 09:46:39;;;;;;;0.90;0.30;;;;;;;6.04;63.53;93977.22;5048009;28;20024;-72
2022/01/09 09:49:05;;;;;;;0.82;0.50;;;;;;;6.30;63.46;94016.94;5028998;28;20024;-71
2022/01/09 09:51:31;;;;;;;1.70;0.47;;;;;;;5.54;64.87;93984.47;5029028;28;20044;-70
2022/01/09 09:53:57;;;;;;;1.17;0.30;;;;;;;5.73;65.28;94012.25;5029670;28;20467;-70
2022/01/09 09:56:23;;;;;;;0.22;0.13;;;;;;;5.40;66.28;94026.72;5029615;28;20030;-69
2022/01/09 09:58:52;;;;;;;0.35;0.35;;;;;;;5.75;65.11;94033.03;5012016;28;20025;-71
2022/01/09 10:01:23;;;;;;;1.13;0.47;;;;;;;5.73;65.43;94017.50;5028992;28;20033;-71
2022/01/09 10:04:01;;;;;;;0.77;0.30;;;;;;;4.75;67.32;93969.06;5028908;28;20238;-69
2022/01/09 10:06:41;;;;;;;0.80;0.45;;;;;;;5.90;66.30;94026.63;5011955;28;20109;-69
2022/01/09 10:09:15;;;;;;;2.42;0.65;;;;;;;5.14;68.05;94039.69;5029683;28;20067;-71
2022/01/09 10:11:48;;;;;;;0.70;0.30;;;;;;;5.65;65.67;94022.72;5028971;28;20032;-69
2022/01/09 10:14:25;;;;;;;0.50;0.40;;;;;;;4.67;68.65;93973.97;5029609;28;20462;-71
2022/01/09 10:17:12;;;;;;;0.28;0.13;;;;;;;5.20;68.04;94041.91;5029265;28;20028;-69
2022/01/09 10:19:47;;;;;;;1.58;0.60;;;;;;;5.33;67.52;94045.59;5029759;28;20491;-71
2022/01/09 10:22:30;;;;;;;2.78;0.50;;;;;;;5.22;67.77;94049.53;5013816;28;20476;-70
2022/01/09 10:24:57;;;;;;;1.10;0.30;;;;;;;5.42;67.24;94038.50;5011936;28;20045;-69
2022/01/09 10:27:33;;;;;;;1.45;0.45;;;;;;;4.53;68.37;94025.09;5011610;28;20022;-68
2022/01/09 10:29:59;;;;;;;0.22;0.13;;;;;;;4.49;68.36;94001.19;5028563;28;20037;-69
2022/01/09 10:32:29;;;;;;;0.70;0.45;;;;;;;5.25;66.83;94029.69;5028801;28;20060;-69
2022/01/09 10:35:17;;;;;;;4.13;1.10;;;;;;;5.84;64.90;94027.81;5029424;28;20021;-69
2022/01/09 10:37:48;;;;;;;2.28;0.70;;;;;;;6.16;63.90;94051.34;5029517;28;20423;-68
2022/01/09 10:40:29;;;;;;;0.68;0.30;;;;;;;6.03;63.26;94012.59;5028572;28;20017;-69
2022/01/09 10:43:05;;;;;;;0.73;0.40;;;;;;;6.01;61.81;94064.13;5029183;28;20029;-68
2022/01/09 10:45:31;;;;;;;1.38;0.25;;;;;;;5.84;63.02;94046.31;5029113;28;20025;-68
2022/01/09 10:48:31;;;;;;;1.33;0.40;;;;;;;5.70;62.65;93993.59;5029838;28;20178;-69
2022/01/09 10:50:57;;;;;;;0.40;0.30;;;;;;;6.87;61.11;94077.78;5006791;28;20034;-71
2022/01/09 10:53:43;;;;;;;1.75;0.40;;;;;;;6.68;59.68;94009.31;5028961;28;20499;-70
2022/01/09 10:56:20;;;;;;;0.90;0.20;;;;;;;5.67;61.60;94028.47;5028574;28;20092;-70
2022/01/09 10:58:56;;;;;;;0.30;0.30;;;;;;;5.76;61.58;94016.13;5011043;28;20132;-70
2022/01/09 11:01:23;;;;;;;1.08;0.30;;;;;;;6.05;61.85;94057.97;5028671;28;20100;-70
2022/01/09 11:03:57;;;;;;;2.10;0.88;;;;;;;6.35;60.08;94060.94;5029825;28;20029;-70
2022/01/09 11:06:26;;;;;;;1.38;0.40;;;;;;;5.98;61.05;94057.59;5028818;28;20637;-70
2022/01/09 11:08:53;;;;;;;3.60;0.50;;;;;;;6.04;59.69;94031.84;5028365;28;20037;-70
2022/01/09 11:11:26;;;;;;;4.88;0.60;;;;;;;5.58;60.79;94036.34;5028463;28;20029;-70
2022/01/09 11:13:54;;;;;;;1.50;0.50;;;;;;;6.10;58.81;94043.84;5028922;28;20026;-70
2022/01/09 11:16:33;;;;;;;1.70;0.57;;;;;;;5.57;60.61;94071.69;5032363;28;20048;-68
2022/01/09 11:19:06;;;;;;;2.53;0.73;;;;;;;6.16;59.79;94050.56;5032645;28;20458;-71
2022/01/09 11:21:37;;;;;;;1.98;0.40;;;;;;;6.44;56.92;94054.56;5014358;28;20120;-68
2022/01/09 11:24:25;;;;;;;1.63;0.40;;;;;;;6.27;57.43;94056.38;5013902;28;20033;-71
2022/01/09 11:27:12;;;;;;;2.40;0.90;;;;;;;6.65;56.37;94073.31;5032277;28;20022;-71
2022/01/09 11:30:03;;;;;;;1.30;0.70;;;;;;;6.57;57.19;94084.66;5031825;28;20105;-71
2022/01/09 11:32:47;;;;;;;1.08;0.47;;;;;;;6.11;57.03;94067.31;4994039;28;20069;-70
2022/01/09 11:35:48;;;;;;;2.58;0.43;;;;;;;5.73;58.90;94093.22;5024831;28;20105;-71
2022/01/09 11:38:26;;;;;;;2.45;0.73;;;;;;;6.43;56.13;94063.59;5032108;28;20459;-69
2022/01/09 11:40:52;;;;;;;3.30;0.60;;;;;;;6.42;56.69;94075.25;5031452;28;20029;-71
2022/01/09 11:43:20;;;;;;;4.15;0.80;;;;;;;5.96;56.21;93999.03;5031973;28;20364;-71
2022/01/09 11:45:57;;;;;;;2.47;0.82;;;;;;;6.38;56.95;94081.44;5031883;28;20036;-71